Alpine, Virginia
Current Conditions -  °F | °C
As of 8:15 PM on Tuesday 21 Oct 2014 (Local Time) from K8W2 Reporting Station
Overcast Overcast  
Wind Chill: 48°   Ceiling: 7000
Heat Index: 49°   Visibility: 10mi
Dew Point: 49°   Wind: 5mph
Humidity: 97%   Direction: 30°NNE
Pressure: 29.92"   Gusts: NA
Location:  38.6726°N, 78.6691°W
Report Text: K8W2 220015Z AUTO 03004KT 10SM OVC070 10/09 A2992 RMK AO1 T00970093
Loading
Personal Weather Stations






























Interactive Weather Map New forecast layout! Learn more

10-Day Weather Forecast

Advertisements
Track Severe Weather on mobile